Time;durP1;ratioP1;P1;durP2;ratioP2;P2;SDS_P1;SDS_P2;PMS_P1;PMS_P2;Temp;Humidity;BMP_temperature;BMP_pressure;BME280_temperature;BME280_humidity;BME280_pressure;Samples;Min_cycle;Max_cycle;Signal;HPM_P1;HPM_P2
2022/05/15 00:01:58;;;;;;;5.55;1.80;;;11.40;1.00;12.40;94416.00;;;;7402898;19;20136;-80
2022/05/15 00:04:26;;;;;;;7.22;5.30;;;11.40;1.00;12.30;94377.00;;;;7405967;19;20128;-81
2022/05/15 00:06:53;;;;;;;4.60;2.70;;;11.30;1.00;12.40;94387.00;;;;7396574;19;20172;-79
2022/05/15 00:09:26;;;;;;;7.75;4.95;;;11.30;1.00;12.40;94394.00;;;;7400992;19;20168;-79
2022/05/15 00:11:54;;;;;;;7.45;3.30;;;11.20;1.00;12.40;94387.00;;;;7405049;19;20166;-80
2022/05/15 00:14:21;;;;;;;12.05;6.55;;;11.20;1.00;12.30;94389.00;;;;7399914;19;20124;-81
2022/05/15 00:16:54;;;;;;;7.75;4.90;;;11.10;1.00;12.30;94405.00;;;;7401697;19;20121;-79
2022/05/15 00:19:22;;;;;;;8.70;3.17;;;11.10;1.00;12.40;94399.00;;;;7405457;19;20135;-80
2022/05/15 00:21:49;;;;;;;2.15;1.65;;;11.20;1.00;12.30;94387.00;;;;7405962;19;20138;-80
2022/05/15 00:24:22;;;;;;;4.47;2.10;;;11.20;1.00;12.20;94392.00;;;;7407054;19;20121;-79
2022/05/15 00:26:50;;;;;;;2.70;1.77;;;11.20;1.00;12.30;94386.00;;;;7407158;19;20133;-80
2022/05/15 00:29:17;;;;;;;4.82;2.60;;;11.20;1.00;12.30;94386.00;;;;7408585;19;20143;-81
2022/05/15 00:31:50;;;;;;;8.75;4.85;;;11.20;1.00;12.30;94404.00;;;;7404802;19;20141;-81
2022/05/15 00:34:24;;;;;;;4.25;1.67;;;11.20;1.00;12.30;94398.00;;;;7407002;19;20129;-78
2022/05/15 00:36:59;;;;;;;3.20;1.80;;;11.20;1.00;12.30;94394.00;;;;7405034;19;20168;-77
2022/05/15 00:39:26;;;;;;;4.32;3.05;;;11.20;1.00;12.30;94373.00;;;;7406745;19;20132;-79
2022/05/15 00:41:53;;;;;;;16.02;7.57;;;11.20;1.00;12.20;94376.00;;;;7403120;19;20145;-79
2022/05/15 00:44:27;;;;;;;5.03;2.05;;;11.10;1.00;12.20;94374.00;;;;7397867;19;20140;-79
2022/05/15 00:46:54;;;;;;;2.33;1.65;;;11.10;1.00;12.20;94395.00;;;;7393940;19;20132;-77
2022/05/15 00:49:21;;;;;;;3.03;1.63;;;11.00;1.00;12.20;94368.00;;;;7395786;19;20148;-79
2022/05/15 00:52:07;;;;;;;2.95;1.60;;;11.00;1.00;12.30;94392.00;;;;7397529;19;20133;-79
2022/05/15 00:55:00;;;;;;;14.20;5.72;;;11.00;1.00;12.10;94390.00;;;;7397168;19;20887;-80
2022/05/15 00:57:50;;;;;;;26.47;13.70;;;11.00;1.00;12.20;94365.00;;;;7401975;19;20657;-80
2022/05/15 01:00:24;;;;;;;15.35;6.30;;;10.90;1.00;12.10;94375.00;;;;7400529;19;20160;-81
2022/05/15 01:03:21;;;;;;;6.35;2.53;;;10.90;1.00;12.00;94350.00;;;;7403691;19;20125;-81
2022/05/15 01:05:56;;;;;;;26.05;12.32;;;10.90;1.00;12.20;94354.00;;;;7402448;19;20168;-81
2022/05/15 01:08:37;;;;;;;16.15;8.32;;;10.90;1.00;12.30;94386.00;;;;7405128;19;20152;-81
2022/05/15 01:11:11;;;;;;;3.92;2.42;;;11.00;1.00;12.40;94363.00;;;;7404494;19;20124;-81
2022/05/15 01:13:50;;;;;;;3.43;1.73;;;11.00;1.00;12.20;94374.00;;;;7400551;19;20141;-80
2022/05/15 01:16:25;;;;;;;5.55;1.60;;;11.00;1.00;12.10;94380.00;;;;7404271;19;20471;-80
2022/05/15 01:19:02;;;;;;;6.13;1.55;;;11.00;1.00;11.90;94389.00;;;;7400291;19;20121;-80
2022/05/15 01:21:53;;;;;;;8.75;4.43;;;10.90;1.00;11.80;94364.00;;;;7402627;19;20149;-78
2022/05/15 01:24:28;;;;;;;17.90;6.80;;;10.70;1.00;12.00;94390.00;;;;7402018;19;20158;-80
2022/05/15 01:26:57;;;;;;;3.15;1.63;;;10.60;1.00;12.00;94364.00;;;;7405200;19;20121;-79
2022/05/15 01:29:35;;;;;;;3.13;1.55;;;10.60;1.00;11.90;94364.00;;;;7401929;19;20164;-81
2022/05/15 01:32:10;;;;;;;4.60;1.50;;;10.70;1.00;11.90;94362.00;;;;7400684;19;20137;-79
2022/05/15 01:34:38;;;;;;;4.60;1.35;;;10.60;1.00;11.80;94372.00;;;;7400284;19;20172;-79
2022/05/15 01:37:06;;;;;;;3.33;1.70;;;10.60;1.00;11.70;94366.00;;;;7402392;19;20136;-79
2022/05/15 01:39:41;;;;;;;3.53;1.63;;;10.50;1.00;11.60;94382.00;;;;7404595;19;20128;-78
2022/05/15 01:42:08;;;;;;;3.27;1.70;;;10.50;1.00;11.60;94381.00;;;;7403374;19;20133;-79
2022/05/15 01:44:37;;;;;;;3.72;1.80;;;;;11.60;94384.00;;;;7400634;19;20137;-81
2022/05/15 01:47:11;;;;;;;3.22;1.30;;;;;11.80;94384.00;;;;7400801;19;20176;-80
2022/05/15 01:49:38;;;;;;;5.63;1.30;;;;;11.90;94379.00;;;;7400625;19;20152;-79
2022/05/15 01:52:07;;;;;;;3.35;1.50;;;;;12.00;94380.00;;;;7401110;19;20128;-79
2022/05/15 01:54:41;;;;;;;1.63;1.40;;;;;11.90;94383.00;;;;7394519;19;20125;-80
2022/05/15 01:57:09;;;;;;;3.90;1.50;;;;;12.00;94378.00;;;;7398785;19;20164;-79
2022/05/15 01:59:38;;;;;;;2.30;1.60;;;;;12.10;94380.00;;;;7396953;19;20144;-80
2022/05/15 02:02:12;;;;;;;4.07;1.63;;;;;12.10;94381.00;;;;7397860;19;20128;-78
2022/05/15 02:04:39;;;;;;;5.10;1.73;;;;;12.10;94378.00;;;;7398587;19;20160;-79
2022/05/15 02:07:07;;;;;;;4.13;1.40;;;;;12.00;94375.00;;;;7394127;19;20511;-79
2022/05/15 02:09:41;;;;;;;1.80;1.60;;;;;12.10;94377.00;;;;7395399;19;20517;-79
2022/05/15 02:12:09;;;;;;;4.32;1.40;;;;;12.00;94368.00;;;;7395190;19;20145;-80
2022/05/15 02:14:37;;;;;;;3.22;1.55;;;;;11.90;94378.00;;;;7392195;19;20148;-78
2022/05/15 02:17:11;;;;;;;6.38;2.00;;;;;11.80;94368.00;;;;7393868;19;20137;-78
2022/05/15 02:19:38;;;;;;;2.38;1.30;;;;;11.90;94370.00;;;;7394211;19;20137;-79
2022/05/15 02:22:06;;;;;;;3.23;1.40;;;;;12.00;94371.00;;;;7400946;19;20121;-79
2022/05/15 02:24:40;;;;;;;3.33;1.67;;;;;12.20;94370.00;;;;7405610;19;20137;-79
2022/05/15 02:27:07;;;;;;;4.40;1.52;;;;;12.10;94374.00;;;;7405173;19;20160;-78
2022/05/15 02:29:35;;;;;;;2.72;1.30;;;;;12.00;94365.00;;;;7404157;19;20137;-79
2022/05/15 02:32:10;;;;;;;5.93;1.80;;;;;11.90;94371.00;;;;7404301;19;20180;-79
2022/05/15 02:34:37;;;;;;;1.30;1.20;;;;;12.00;94360.00;;;;7402189;19;20173;-80
2022/05/15 02:37:05;;;;;;;2.97;1.40;;;;;12.10;94361.00;;;;7405653;19;20117;-79
2022/05/15 02:39:39;;;;;;;4.05;1.48;;;;;12.10;94360.00;;;;7406508;19;20137;-78
2022/05/15 02:42:06;;;;;;;2.97;1.30;;;;;12.00;94363.00;;;;7406734;19;20241;-80
2022/05/15 02:44:34;;;;;;;2.33;1.20;;;;;12.10;94362.00;;;;7407023;19;20579;-79
2022/05/15 02:47:08;;;;;;;5.73;1.53;;;;;12.00;94364.00;;;;7406831;19;20604;-80
2022/05/15 02:52:28;;;;;;;3.05;1.50;;;;;11.90;94355.00;;;;7408288;19;20129;-79
2022/05/15 02:54:55;;;;;;;3.67;1.27;;;;;12.00;94358.00;;;;7407476;19;20134;-78
2022/05/15 02:57:23;;;;;;;2.87;1.60;;;;;12.00;94354.00;;;;7407559;19;20145;-80
2022/05/15 02:59:57;;;;;;;2.28;1.33;;;;;12.00;94347.00;;;;7408071;19;20132;-80
2022/05/15 03:02:25;;;;;;;7.25;1.50;;;;;12.00;94353.00;;;;7408901;19;20125;-80
2022/05/15 03:04:53;;;;;;;3.42;1.70;;;;;12.00;94353.00;;;;7408091;19;20155;-78
2022/05/15 03:07:34;;;;;;;2.63;1.23;;;;;11.90;94345.00;;;;7406935;19;20121;-79
2022/05/15 03:10:02;;;;;;;2.65;1.35;;;;;11.90;94359.00;;;;7406169;19;20156;-80
2022/05/15 03:12:36;;;;;;;1.63;1.30;;;;;11.80;94351.00;;;;7405324;19;20136;-80
2022/05/15 03:15:05;;;;;;;2.50;1.20;;;;;12.00;94350.00;;;;7400118;19;20142;-79
2022/05/15 03:17:34;;;;;;;3.50;1.30;;;;;11.80;94357.00;;;;7401144;19;20136;-78
2022/05/15 03:20:10;;;;;;;4.57;1.60;;;;;11.70;94351.00;;;;7402428;19;20151;-79
2022/05/15 03:22:38;;;;;;;1.70;1.20;;;;;11.80;94353.00;;;;7401404;19;20125;-79
2022/05/15 03:25:07;;;;;;;4.75;1.38;;;;;11.70;94350.00;;;;7400781;19;20133;-79
2022/05/15 03:27:41;;;;;;;5.20;1.40;;;;;11.90;94349.00;;;;7399081;19;20140;-79
2022/05/15 03:30:09;;;;;;;2.47;1.10;;;;;11.80;94353.00;;;;7401664;19;20591;-78
2022/05/15 03:32:37;;;;;;;2.25;1.17;;;;;11.80;94354.00;;;;7400084;19;20165;-79
2022/05/15 03:35:11;;;;;;;3.58;1.55;;;;;11.70;94349.00;;;;7402333;19;20602;-80
2022/05/15 03:37:40;;;;;;;2.43;1.47;;;;;11.60;94356.00;;;;7402522;19;20188;-79
2022/05/15 03:40:11;;;;;;;4.13;1.30;;;;;11.70;94357.00;;;;7401658;19;20153;-79
2022/05/15 03:42:45;;;;;;;1.50;1.30;;;;;11.60;94358.00;;;;7399904;19;20156;-78
2022/05/15 03:45:13;;;;;;;3.05;1.50;;;;;11.50;94361.00;;;;7399671;19;20496;-79
2022/05/15 03:47:46;;;;;;;4.78;1.40;;;;;11.60;94364.00;;;;7396085;19;20133;-79
2022/05/15 03:50:23;;;;;;;3.85;1.65;;;;;11.80;94359.00;;;;7397827;19;20609;-79
2022/05/15 03:52:51;;;;;;;2.10;1.30;;;;;11.70;94360.00;;;;7396872;19;20125;-78
2022/05/15 03:55:19;;;;;;;1.50;1.30;;;;;11.80;94360.00;;;;7385813;19;20145;-79
2022/05/15 03:57:56;;;;;;;5.97;1.30;;;;;11.80;94361.00;;;;7397438;19;20764;-77
2022/05/15 04:00:24;;;;;;;5.95;1.38;;;;;11.80;94367.00;;;;7400629;19;20144;-78
2022/05/15 04:02:53;;;;;;;2.47;1.17;;;;;11.80;94365.00;;;;7401466;19;20149;-78
2022/05/15 04:05:40;;;;;;;2.53;1.23;;;;;11.90;94358.00;;;;7397555;19;20667;-78
2022/05/15 04:08:16;;;;;;;3.90;1.20;;;;;11.90;94356.00;;;;7401910;19;20189;-79
2022/05/15 04:10:50;;;;;;;3.90;1.40;;;;;11.90;94362.00;;;;7403941;19;20132;-78
2022/05/15 04:13:18;;;;;;;2.15;1.20;;;;;11.90;94357.00;;;;7398483;19;20520;-78
2022/05/15 04:15:46;;;;;;;3.30;1.05;;;;;12.00;94357.00;;;;7400755;19;20485;-78
2022/05/15 04:18:20;;;;;;;3.28;1.20;;;;;12.20;94359.00;;;;7400627;19;20481;-77
2022/05/15 04:20:48;;;;;;;3.70;1.38;;;;;12.30;94356.00;;;;7401929;19;20137;-79
2022/05/15 04:23:16;;;;;;;2.78;1.30;;;;;12.30;94348.00;;;;7403299;19;20474;-78
2022/05/15 04:25:51;;;;;;;3.45;1.50;;;;;12.30;94355.00;;;;7396083;19;20144;-78
2022/05/15 04:28:19;;;;;;;2.58;1.20;;;;;12.20;94359.00;;;;7398232;19;20155;-78
2022/05/15 04:30:46;;;;;;;3.78;1.35;;;;;12.30;94357.00;;;;7398787;19;20128;-78
2022/05/15 04:33:21;;;;;;;3.42;1.35;;;;;12.40;94346.00;;;;7394733;19;20568;-78
2022/05/15 04:35:49;;;;;;;4.60;1.70;;;;;12.50;94356.00;;;;7395597;19;20141;-78
2022/05/15 04:38:17;;;;;;;1.83;1.30;;;;;12.60;94354.00;;;;7396551;19;20537;-78
2022/05/15 04:40:52;;;;;;;1.80;1.38;;;;;12.70;94350.00;;;;7395359;19;20156;-78
2022/05/15 04:43:20;;;;;;;2.75;1.40;;;;;12.90;94355.00;;;;7394942;19;20603;-77
2022/05/15 04:45:48;;;;;;;1.98;1.25;;;;;13.10;94360.00;;;;7396568;19;20599;-77
2022/05/15 04:48:22;;;;;;;6.95;1.40;;;;;13.20;94354.00;;;;7398646;19;20636;-78
2022/05/15 04:50:50;;;;;;;4.25;1.52;;;;;13.30;94357.00;;;;7398505;19;20476;-78
2022/05/15 04:53:22;;;;;;;1.52;1.08;;;;;13.40;94358.00;;;;7395212;19;20643;-78
2022/05/15 04:55:59;;;;;;;3.13;1.40;;;;;13.50;94358.00;;;;7396234;19;20129;-78
2022/05/15 04:58:28;;;;;;;2.85;1.25;;;;;13.80;94363.00;;;;7398735;19;20192;-78
2022/05/15 05:00:56;;;;;;;3.67;1.50;;;;;14.00;94358.00;;;;7398317;19;20485;-78
2022/05/15 05:03:30;;;;;;;4.15;1.30;;;;;14.40;94363.00;;;;7395342;19;20178;-78
2022/05/15 05:06:11;;;;;;;2.55;1.50;;;;;14.80;94361.00;;;;7395973;19;20575;-77
2022/05/15 05:08:46;;;;;;;5.57;1.60;;;;;15.00;94364.00;;;;7400067;19;20500;-77
2022/05/15 05:11:14;;;;;;;3.67;1.63;;;;;15.30;94365.00;;;;7398317;19;20129;-78
2022/05/15 05:13:42;;;;;;;2.53;1.30;;;;;15.30;94366.00;;;;7395756;19;20609;-77
2022/05/15 05:16:18;;;;;;;1.58;1.30;;;;;15.50;94367.00;;;;7399146;19;20595;-76
2022/05/15 05:18:46;;;;;;;2.13;1.33;;;;;15.70;94369.00;;;;7396270;19;20188;-76
2022/05/15 05:21:14;;;;;;;3.05;1.48;;;;;15.70;94368.00;;;;7394867;19;20152;-75
2022/05/15 05:23:48;;;;;;;7.25;1.45;;;;;15.80;94366.00;;;;7394176;19;20153;-76
2022/05/15 05:26:16;;;;;;;5.97;1.52;;;;;16.00;94366.00;;;;7396897;19;20136;-77
2022/05/15 05:28:43;;;;;;;3.30;1.50;;;;;16.10;94370.00;;;;7397549;19;20497;-77
2022/05/15 05:31:18;;;;;;;3.65;1.20;;;;;16.30;94365.00;;;;7394296;19;20586;-77
2022/05/15 05:33:49;;;;;;;3.92;1.20;;;;;16.50;94373.00;;;;7394887;19;20631;-76
2022/05/15 05:36:17;;;;;;;2.92;1.52;;;;;16.70;94373.00;;;;7396293;19;20128;-77
2022/05/15 05:38:51;;;;;;;3.58;1.40;;;;;16.80;94370.00;;;;7397158;19;20531;-77
2022/05/15 05:41:19;;;;;;;2.50;1.40;;;;;16.80;94374.00;;;;7390646;19;20144;-77
2022/05/15 05:43:47;;;;;;;4.97;1.95;;;;;16.80;94377.00;;;;7394021;19;20137;-76
2022/05/15 05:46:21;;;;;;;6.40;1.60;;;;;16.90;94370.00;;;;7396254;19;20140;-77
2022/05/15 05:48:49;;;;;;;3.33;1.45;;;;;16.90;94362.00;;;;7397733;19;20719;-76
2022/05/15 05:51:17;;;;;;;1.35;1.17;;;;;17.00;94368.00;;;;7393798;19;20151;-78
2022/05/15 05:53:52;;;;;;;5.05;1.67;;;;;17.10;94373.00;;;;7397727;19;20634;-79
2022/05/15 05:56:22;;;;;;;4.07;1.55;;;;;17.20;94370.00;;;;7401490;19;20129;-78
2022/05/15 05:58:50;;;;;;;3.40;1.65;;;;;17.60;94375.00;;;;7404185;19;20158;-78
2022/05/15 06:01:24;;;;;;;3.50;1.50;;;;;17.80;94373.00;;;;7403692;19;20600;-78
2022/05/15 06:06:50;;;;;;;5.40;1.65;;;;;18.10;94385.00;;;;7403024;19;20183;-78
2022/05/15 06:09:18;;;;;;;4.38;1.70;;;;;18.10;94378.00;;;;7402850;19;20142;-80
2022/05/15 06:11:52;;;;;;;6.57;1.55;;;;;18.00;94385.00;;;;7404154;19;20158;-79
2022/05/15 06:14:20;;;;;;;5.57;1.75;;;;;18.30;94378.00;;;;7403633;19;20620;-80
2022/05/15 06:16:48;;;;;;;6.57;1.98;;;;;18.30;94383.00;;;;7404156;19;20185;-80
2022/05/15 06:19:24;;;;;;;6.63;1.90;;;;;18.60;94382.00;;;;7403863;19;20128;-80
2022/05/15 06:21:52;;;;;;;2.72;1.60;;;;;18.60;94380.00;;;;7404286;19;20129;-80
2022/05/15 06:24:20;;;;;;;6.22;1.98;;;;;18.90;94376.00;;;;7403636;19;20129;-78
2022/05/15 06:26:58;;;;;;;4.72;1.70;;;;;19.00;94389.00;;;;7404711;19;20147;-77
2022/05/15 06:29:26;;;;;;;3.03;1.85;;;;;18.80;94392.00;;;;7401960;19;20168;-77
2022/05/15 06:31:54;;;;;;;4.82;1.80;;;;;18.90;94385.00;;;;7403000;19;20188;-78
2022/05/15 06:34:28;;;;;;;4.70;1.98;;;;;19.10;94389.00;;;;7402095;19;20173;-79
2022/05/15 06:36:56;;;;;;;4.53;1.60;;;;;19.20;94387.00;;;;7404040;19;20136;-79
2022/05/15 06:39:24;;;;;;;5.03;2.00;;;;;19.50;94379.00;;;;7400415;19;20153;-79
2022/05/15 06:42:00;;;;;;;2.83;2.00;;;;;19.50;94380.00;;;;7401814;19;20254;-82
2022/05/15 06:44:28;;;;;;;3.72;2.03;;;;;19.80;94376.00;;;;7404318;19;20180;-78
2022/05/15 06:46:59;;;;;;;6.18;2.30;;;;;20.10;94373.00;;;;7406062;19;20141;-80
2022/05/15 06:49:33;;;;;;;6.60;1.73;;;;;20.30;94382.00;;;;7404179;19;20127;-79
2022/05/15 06:52:01;;;;;;;4.57;1.70;;;;;20.30;94375.00;;;;7407011;19;20135;-79
2022/05/15 06:54:29;;;;;;;5.35;1.92;;;;;20.50;94372.00;;;;7405509;19;20165;-77
2022/05/15 06:59:49;;;;;;;3.70;1.95;;;;;20.70;94379.00;;;;7407004;19;20158;-78
2022/05/15 07:02:27;;;;;;;12.98;2.30;;;;;21.00;94374.00;;;;7409894;19;20152;-79
2022/05/15 07:04:55;;;;;;;3.78;2.13;;;;;21.50;94379.00;;;;7409602;19;20460;-78
2022/05/15 07:07:23;;;;;;;4.38;1.75;;;;;22.20;94366.00;;;;7399511;19;20180;-79
2022/05/15 07:10:03;;;;;;;7.10;1.58;;;;;22.10;94372.00;;;;7407345;19;20495;-78
2022/05/15 07:12:31;;;;;;;3.28;1.70;;;;;22.50;94365.00;;;;7408023;19;20144;-79
2022/05/15 07:15:08;;;;;;;5.82;1.60;;;;;22.80;94373.00;;;;7402901;19;20590;-79
2022/05/15 07:17:36;;;;;;;6.25;1.85;;;;;22.90;94368.00;;;;7402657;19;20145;-78
2022/05/15 07:20:05;;;;;;;4.57;1.90;;;;;22.70;94368.00;;;;7404746;19;20152;-78
2022/05/15 07:22:40;;;;;;;3.53;1.80;;;;;23.10;94377.00;;;;7406436;19;20148;-77
2022/05/15 07:25:08;;;;;;;2.65;1.60;;;;;23.20;94378.00;;;;7403738;19;20169;-77
2022/05/15 07:27:36;;;;;;;3.53;1.65;;;;;23.20;94374.00;;;;7405202;19;20140;-77
2022/05/15 07:30:11;;;;;;;8.52;1.70;;;;;22.80;94384.00;;;;7408486;19;20135;-78
2022/05/15 07:32:44;;;;;;;5.70;1.98;;;;;22.50;94384.00;;;;7405583;19;20144;-77
2022/05/15 07:35:19;;;;;;;4.70;1.83;;;;;22.70;94389.00;;;;7402824;19;20134;-79
2022/05/15 07:37:54;;;;;;;6.45;1.80;;;;;22.70;94387.00;;;;7404756;19;20167;-78
2022/05/15 07:40:28;;;;;;;5.47;2.35;;;;;22.70;94386.00;;;;7403693;19;20140;-79
2022/05/15 07:42:56;;;;;;;5.55;1.80;;;;;22.30;94384.00;;;;7402272;19;20144;-80
2022/05/15 07:45:24;;;;;;;2.50;1.80;;;;;22.30;94385.00;;;;7403168;19;20208;-80
2022/05/15 07:48:01;;;;;;;3.95;1.67;;;;;22.20;94391.00;;;;7404697;19;20164;-79
2022/05/15 07:50:29;;;;;;;4.85;1.52;;;;;22.00;94384.00;;;;7403053;19;20145;-79
2022/05/15 07:52:58;;;;;;;3.65;2.05;;;;;21.70;94381.00;;;;7404339;19;20605;-81
2022/05/15 07:55:32;;;;;;;4.15;1.90;;;;;22.20;94377.00;;;;7400795;19;20148;-80
2022/05/15 07:58:00;;;;;;;5.63;1.80;;;;;22.60;94384.00;;;;7404527;19;20141;-80
2022/05/15 08:00:28;;;;;;;3.50;1.60;;;;;23.10;94380.00;;;;7406682;19;20164;-79
2022/05/15 08:03:08;;;;;;;3.50;1.75;;;;;23.40;94375.00;;;;7406609;19;20506;-79
2022/05/15 08:08:41;;;;;;;3.70;1.85;;;;;23.60;94382.00;;;;7405559;19;20188;-78
2022/05/15 08:11:09;;;;;;;3.75;1.88;;;;;23.80;94382.00;;;;7403946;19;20157;-78
2022/05/15 08:13:37;;;;;;;3.78;1.92;;;;;24.30;94379.00;;;;7403508;19;20224;-80
2022/05/15 08:16:12;;;;;;;3.72;1.77;;;;;24.40;94378.00;;;;7403857;19;20148;-79
2022/05/15 08:24:23;;;;;;;4.70;2.00;;;;;24.70;94383.00;;;;7404392;19;20152;-80
2022/05/15 08:26:57;;;;;;;2.53;1.95;;;;;24.70;94388.00;;;;7405434;19;20478;-80
2022/05/15 08:29:28;;;;;;;6.22;1.90;;;;;25.60;94376.00;;;;7398898;19;20152;-77
2022/05/15 08:31:56;;;;;;;9.23;2.00;;;;;25.30;94373.00;;;;7397718;19;20132;-78
2022/05/15 08:34:31;;;;;;;7.53;1.90;;;;;24.40;94375.00;;;;7396804;19;20176;-77
2022/05/15 08:37:01;;;;;;;4.25;2.25;;;;;24.70;94376.00;;;;7400492;19;20176;-77
2022/05/15 08:39:29;;;;;;;4.28;1.90;;;;;24.90;94367.00;;;;7398607;19;20492;-78
2022/05/15 08:42:23;;;;;;;4.50;1.80;;;;;24.90;94376.00;;;;7397884;19;20512;-79
2022/05/15 08:44:56;;;;;;;6.65;2.10;;;;;25.20;94372.00;;;;7402288;19;20568;-79
2022/05/15 08:47:44;;;;;;;6.78;2.05;;;;;24.80;94375.00;;;;7398368;19;20481;-77
2022/05/15 08:50:18;;;;;;;9.32;2.10;;;;;25.30;94364.00;;;;7400960;19;20694;-78
2022/05/15 08:53:14;;;;;;;8.05;2.00;;;;;25.80;94367.00;;;;7398681;19;20789;-78
2022/05/15 08:55:51;;;;;;;5.40;2.05;;;;;26.30;94367.00;;;;7397604;19;20145;-77
2022/05/15 08:58:25;;;;;;;4.32;1.85;;;;;26.60;94377.00;;;;7400186;19;20150;-78
2022/05/15 09:00:54;;;;;;;4.10;1.98;;;;;26.80;94376.00;;;;7400317;19;20618;-77
2022/05/15 09:03:35;;;;;;;3.28;1.73;;;;;26.50;94380.00;;;;7395853;19;20133;-79
2022/05/15 09:06:21;;;;;;;5.55;2.05;;;;;26.80;94386.00;;;;7397886;19;20203;-79
2022/05/15 09:09:06;;;;;;;4.18;1.90;;;;;26.70;94378.00;;;;7401126;19;20148;-79
2022/05/15 09:12:00;;;;;;;3.15;1.92;;;;;26.70;94384.00;;;;7397005;19;20140;-78
2022/05/15 09:14:40;;;;;;;2.65;1.85;;;;;26.70;94380.00;;;;7396930;19;20149;-78
2022/05/15 09:17:24;;;;;;;4.22;2.08;;;;;26.90;94388.00;;;;7398815;19;20140;-78
2022/05/15 09:19:57;;;;;;;4.43;1.95;;;;;26.20;94386.00;;;;7398743;19;20634;-77
2022/05/15 09:22:42;;;;;;;2.70;1.98;;;;;25.90;94386.00;;;;7400660;19;20144;-78
2022/05/15 09:25:19;;;;;;;2.45;1.67;;;;;26.00;94379.00;;;;7396304;19;20144;-78
2022/05/15 09:28:06;;;;;;;4.72;1.83;;;;;26.20;94382.00;;;;7399016;19;20741;-78
2022/05/15 09:30:39;;;;;;;5.07;2.10;;;;;26.30;94387.00;;;;7398082;19;20159;-79
2022/05/15 09:33:28;;;;;;;3.50;2.20;;;;;26.70;94385.00;;;;7395697;19;20627;-79
2022/05/15 09:36:33;;;;;;;3.80;2.05;;;;;26.90;94389.00;;;;7397993;19;20144;-77
2022/05/15 09:39:14;;;;;;;3.50;2.10;;;;;25.60;94378.00;;;;7394355;19;20152;-78
2022/05/15 09:44:35;;;;;;;4.72;2.08;;;;;26.20;94382.00;;;;7399043;19;20595;-79
2022/05/15 09:47:19;;;;;;;5.70;1.95;;;;;26.90;94384.00;;;;7399983;19;20200;-79
2022/05/15 09:49:53;;;;;;;5.15;2.00;;;;;27.10;94386.00;;;;7397427;19;20146;-79
2022/05/15 09:52:34;;;;;;;4.40;2.00;;;;;27.20;94377.00;;;;7400010;19;20125;-79
2022/05/15 09:55:27;;;;;;;4.97;2.58;;;;;27.40;94380.00;;;;7394516;19;20521;-79
2022/05/15 09:57:58;;;;;;;3.50;2.08;;;;;27.70;94380.00;;;;7397215;19;20658;-78
2022/05/15 10:00:38;;;;;;;3.83;2.08;;;;;27.80;94363.00;;;;7400974;19;20129;-81
2022/05/15 10:03:26;;;;;;;3.88;2.10;;;;;28.20;94369.00;;;;7401365;19;20579;-81
2022/05/15 10:06:12;;;;;;;5.90;2.08;;;;;28.60;94366.00;;;;7399186;19;20154;-80
2022/05/15 10:09:04;;;;;;;5.90;2.13;;;;;28.30;94367.00;;;;7400119;19;20140;-80
2022/05/15 10:11:46;;;;;;;8.40;2.47;;;;;28.30;94370.00;;;;7398505;19;20133;-80
2022/05/15 10:14:51;;;;;;;4.03;1.95;;;;;27.80;94363.00;;;;7401678;19;20144;-81
2022/05/15 10:17:27;;;;;;;5.80;2.40;;;;;28.60;94362.00;;;;7397751;19;20603;-80
2022/05/15 10:20:14;;;;;;;5.65;2.38;;;;;28.50;94358.00;;;;7398184;19;20633;-80
2022/05/15 10:23:20;;;;;;;4.63;2.42;;;;;28.60;94357.00;;;;7398984;19;20137;-82
2022/05/15 10:25:59;;;;;;;5.65;2.50;;;;;28.60;94350.00;;;;7395921;19;20180;-80
2022/05/15 10:28:57;;;;;;;4.70;2.30;;;;;28.40;94356.00;;;;7398781;19;20151;-81
2022/05/15 10:31:35;;;;;;;6.55;2.13;;;;;28.00;94355.00;;;;7396671;19;20125;-81
2022/05/15 10:34:25;;;;;;;4.05;2.15;;;;;28.40;94352.00;;;;7397318;19;20176;-80
2022/05/15 10:37:17;;;;;;;6.53;1.95;;;;;28.10;94351.00;;;;7393486;19;20250;-81
2022/05/15 10:40:01;;;;;;;6.05;2.03;;;;;28.50;94354.00;;;;7397753;19;20541;-82
2022/05/15 10:42:39;;;;;;;3.95;1.90;;;;;28.10;94350.00;;;;7402959;19;20140;-83
2022/05/15 10:45:35;;;;;;;4.18;2.42;;;;;28.10;94348.00;;;;7402410;19;20121;-77
2022/05/15 10:48:42;;;;;;;4.60;2.20;;;;;27.70;94340.00;;;;7402634;19;20608;-79
2022/05/15 10:51:26;;;;;;;7.13;2.40;;;;;27.80;94329.00;;;;7403940;19;20149;-80
2022/05/15 10:57:29;;;;;;;5.55;2.20;;;;;28.90;94324.00;;;;7403156;19;21605;-82
2022/05/15 11:00:29;;;;;;;6.13;2.53;;;;;29.20;94327.00;;;;7402362;19;20148;-79
2022/05/15 11:03:06;;;;;;;4.07;2.42;;;;;29.30;94324.00;;;;7405598;19;20136;-79
2022/05/15 11:05:57;;;;;;;3.33;2.30;;;;;29.30;94324.00;;;;7403792;19;20124;-79
2022/05/15 11:09:01;;;;;;;4.32;2.40;;;;;28.70;94325.00;;;;7399910;19;20152;-78
2022/05/15 11:12:12;;;;;;;3.67;2.20;;;;;29.20;94313.00;;;;7399504;19;20496;-81
2022/05/15 11:15:19;;;;;;;3.75;2.50;;;;;28.90;94320.00;;;;7405609;19;20141;-79
2022/05/15 11:18:14;;;;;;;4.50;2.50;;;;;29.60;94318.00;;;;7406780;19;20148;-80
2022/05/15 11:21:00;;;;;;;5.53;2.50;;;;;30.30;94321.00;;;;7399886;19;20225;-79
2022/05/15 11:23:55;;;;;;;3.30;2.28;;;;;31.30;94313.00;;;;7401841;19;20157;-79
2022/05/15 11:26:43;;;;;;;3.42;2.53;;;;;31.20;94317.00;;;;7401136;19;20140;-81
2022/05/15 11:29:15;;;;;;;5.30;2.40;;;;;30.40;94316.00;;;;7403026;19;20132;-80
2022/05/15 11:31:56;;;;;;;4.95;2.53;;;;;30.30;94322.00;;;;7398097;19;20132;-80
2022/05/15 11:35:02;;;;;;;3.17;2.50;;;;;30.10;94322.00;;;;7398116;19;20178;-79
2022/05/15 11:38:04;;;;;;;5.47;2.58;;;;;28.40;94308.00;;;;7397338;19;20235;-78
2022/05/15 11:40:34;;;;;;;4.15;2.47;;;;;29.40;94316.00;;;;7397915;19;20143;-77
2022/05/15 11:43:26;;;;;;;6.43;2.58;;;;;29.40;94311.00;;;;7396885;19;20140;-79
2022/05/15 11:46:01;;;;;;;8.65;2.70;;;;;29.50;94317.00;;;;7396027;19;20128;-79
2022/05/15 11:48:38;;;;;;;4.35;2.13;;;;;30.10;94307.00;;;;7402932;19;20153;-79
2022/05/15 11:51:15;;;;;;;2.55;2.30;;;;;30.20;94301.00;;;;7397707;19;20210;-78
2022/05/15 11:53:58;;;;;;;3.45;2.45;;;;;29.00;94305.00;;;;7399474;19;20136;-79
2022/05/15 11:56:37;;;;;;;4.03;2.72;;;;;28.80;94300.00;;;;7400833;19;20155;-79
2022/05/15 11:59:32;;;;;;;5.57;2.30;;;;;29.10;94299.00;;;;7398423;19;20140;-78
2022/05/15 12:02:21;;;;;;;4.25;2.38;;;;;29.90;94291.00;;;;7398139;19;20248;-80
2022/05/15 12:05:03;;;;;;;3.15;2.15;;;;;29.50;94297.00;;;;7401824;19;20140;-81
2022/05/15 12:07:59;;;;;;;4.35;2.47;;;;;29.90;94295.00;;;;7396216;19;20180;-79
2022/05/15 12:10:55;;;;;;;2.88;2.17;;;;;30.10;94289.00;;;;7399645;19;20170;-81
2022/05/15 12:13:42;;;;;;;2.42;2.22;;;;;30.40;94285.00;;;;7401417;19;20129;-82
2022/05/15 12:16:17;;;;;;;4.40;2.55;;;;;30.80;94271.00;;;;7402599;19;20128;-82
2022/05/15 12:18:55;;;;;;;4.25;2.30;;;;;30.90;94275.00;;;;7396816;19;20601;-83
2022/05/15 12:21:51;;;;;;;3.20;2.50;;;;;31.30;94274.00;;;;7400197;19;20602;-84
2022/05/15 12:24:28;;;;;;;3.85;2.15;;;;;31.70;94269.00;;;;7399411;19;20211;-81
2022/05/15 12:27:20;;;;;;;5.40;2.40;;;;;31.60;94275.00;;;;7401801;19;20143;-82
2022/05/15 12:29:54;;;;;;;5.53;2.67;;;;;31.50;94284.00;;;;7400655;19;20148;-81
2022/05/15 12:32:28;;;;;;;7.53;2.35;;;;;31.80;94273.00;;;;7399563;19;20144;-81
2022/05/15 12:34:59;;;;;;;4.30;2.20;;;;;30.80;94269.00;;;;7399273;19;20144;-82
2022/05/15 12:37:31;;;;;;;3.00;2.33;;;;;31.30;94269.00;;;;7394501;19;20136;-82
2022/05/15 12:40:06;;;;;;;3.90;2.20;;;;;30.90;94275.00;;;;7399828;19;20459;-80
2022/05/15 12:42:41;;;;;;;8.35;2.35;;;;;30.20;94273.00;;;;7396370;19;20520;-83
2022/05/15 12:45:20;;;;;;;3.50;2.25;;;;;30.10;94279.00;;;;7394330;19;20150;-84
2022/05/15 12:48:19;;;;;;;2.95;1.95;;;;;30.50;94275.00;;;;7397229;19;20170;-84
2022/05/15 12:51:02;;;;;;;3.28;2.22;;;;;31.10;94273.00;;;;7395506;19;20878;-85
2022/05/15 12:53:34;;;;;;;3.35;2.55;;;;;30.70;94272.00;;;;7397403;19;20124;-85
2022/05/15 12:56:18;;;;;;;7.00;2.40;;;;;30.70;94273.00;;;;7397498;19;20601;-84
2022/05/15 12:58:52;;;;;;;3.70;2.28;;;;;30.80;94267.00;;;;7399296;19;20750;-84
2022/05/15 13:01:30;;;;;;;2.85;2.25;;;;;30.80;94259.00;;;;7395499;19;20160;-82
2022/05/15 13:04:00;;;;;;;5.68;2.50;;;;;30.60;94261.00;;;;7391121;19;20748;-83
2022/05/15 13:07:03;;;;;;;5.35;2.47;;;;;30.10;94263.00;;;;7394086;19;20171;-84
2022/05/15 13:09:39;;;;;;;2.50;2.22;;;;;29.70;94261.00;;;;7396744;19;20140;-83
2022/05/15 13:12:23;;;;;;;6.35;2.67;;;;;29.20;94262.00;;;;7397261;19;20483;-85